sensor_id;sensor_type;location;lat;lon;timestamp;temperature;humidity
54576;DHT22;40472;53.486;14.542;2023-06-10T00:01:53;13.00;99.90
54576;DHT22;40472;53.486;14.542;2023-06-10T00:04:26;13.00;99.90
54576;DHT22;40472;53.486;14.542;2023-06-10T00:06:52;13.00;99.90
54576;DHT22;40472;53.486;14.542;2023-06-10T00:09:19;13.10;99.90
54576;DHT22;40472;53.486;14.542;2023-06-10T00:11:47;13.10;99.90
54576;DHT22;40472;53.486;14.542;2023-06-10T00:14:13;13.10;99.90
54576;DHT22;40472;53.486;14.542;2023-06-10T00:16:39;13.00;99.90
54576;DHT22;40472;53.486;14.542;2023-06-10T00:19:05;13.00;99.90
54576;DHT22;40472;53.486;14.542;2023-06-10T00:21:33;13.00;99.90
54576;DHT22;40472;53.486;14.542;2023-06-10T00:24:10;13.00;99.90
54576;DHT22;40472;53.486;14.542;2023-06-10T00:26:38;13.00;99.90
54576;DHT22;40472;53.486;14.542;2023-06-10T00:29:04;13.00;99.90
54576;DHT22;40472;53.486;14.542;2023-06-10T00:31:30;13.00;99.90
54576;DHT22;40472;53.486;14.542;2023-06-10T00:33:56;12.90;99.90
54576;DHT22;40472;53.486;14.542;2023-06-10T00:36:22;13.00;99.90
54576;DHT22;40472;53.486;14.542;2023-06-10T00:38:48;13.00;99.90
54576;DHT22;40472;53.486;14.542;2023-06-10T00:41:14;12.90;99.90
54576;DHT22;40472;53.486;14.542;2023-06-10T00:43:40;12.90;99.90
54576;DHT22;40472;53.486;14.542;2023-06-10T00:46:05;12.90;99.90
54576;DHT22;40472;53.486;14.542;2023-06-10T00:48:32;12.90;99.90
54576;DHT22;40472;53.486;14.542;2023-06-10T00:50:58;12.90;99.90
54576;DHT22;40472;53.486;14.542;2023-06-10T00:53:24;12.90;99.90
54576;DHT22;40472;53.486;14.542;2023-06-10T00:55:50;12.90;99.90
54576;DHT22;40472;53.486;14.542;2023-06-10T00:58:16;12.90;99.90
54576;DHT22;40472;53.486;14.542;2023-06-10T01:00:42;13.00;99.90
54576;DHT22;40472;53.486;14.542;2023-06-10T01:03:08;12.90;99.90
54576;DHT22;40472;53.486;14.542;2023-06-10T01:05:35;12.90;99.90
54576;DHT22;40472;53.486;14.542;2023-06-10T01:08:22;13.00;99.90
54576;DHT22;40472;53.486;14.542;2023-06-10T01:10:58;12.90;99.90
54576;DHT22;40472;53.486;14.542;2023-06-10T01:13:26;12.90;99.90
54576;DHT22;40472;53.486;14.542;2023-06-10T01:15:55;12.80;99.90
54576;DHT22;40472;53.486;14.542;2023-06-10T01:18:22;12.80;99.90
54576;DHT22;40472;53.486;14.542;2023-06-10T01:20:48;12.80;99.90
54576;DHT22;40472;53.486;14.542;2023-06-10T01:23:14;12.80;99.90
54576;DHT22;40472;53.486;14.542;2023-06-10T01:25:53;12.80;99.90
54576;DHT22;40472;53.486;14.542;2023-06-10T01:28:33;12.80;99.90
54576;DHT22;40472;53.486;14.542;2023-06-10T01:33:36;12.90;99.90
54576;DHT22;40472;53.486;14.542;2023-06-10T01:36:03;12.90;99.90
54576;DHT22;40472;53.486;14.542;2023-06-10T01:38:55;12.90;99.90
54576;DHT22;40472;53.486;14.542;2023-06-10T01:41:22;12.90;99.90
54576;DHT22;40472;53.486;14.542;2023-06-10T01:43:48;13.00;99.90
54576;DHT22;40472;53.486;14.542;2023-06-10T01:46:15;13.00;99.90
54576;DHT22;40472;53.486;14.542;2023-06-10T01:48:45;13.00;99.90
54576;DHT22;40472;53.486;14.542;2023-06-10T01:51:10;13.10;99.90
54576;DHT22;40472;53.486;14.542;2023-06-10T01:53:36;13.10;99.90
54576;DHT22;40472;53.486;14.542;2023-06-10T01:56:02;13.10;99.90
54576;DHT22;40472;53.486;14.542;2023-06-10T01:58:27;13.10;99.90
54576;DHT22;40472;53.486;14.542;2023-06-10T02:00:53;13.10;99.90
54576;DHT22;40472;53.486;14.542;2023-06-10T02:03:19;13.10;99.90
54576;DHT22;40472;53.486;14.542;2023-06-10T02:05:44;13.20;99.90
54576;DHT22;40472;53.486;14.542;2023-06-10T02:08:10;13.10;99.90
54576;DHT22;40472;53.486;14.542;2023-06-10T02:10:36;13.10;99.90
54576;DHT22;40472;53.486;14.542;2023-06-10T02:13:02;13.20;99.90
54576;DHT22;40472;53.486;14.542;2023-06-10T02:15:27;13.20;99.90
54576;DHT22;40472;53.486;14.542;2023-06-10T02:17:53;13.20;99.90
54576;DHT22;40472;53.486;14.542;2023-06-10T02:20:20;13.20;99.90
54576;DHT22;40472;53.486;14.542;2023-06-10T02:22:46;13.20;99.90
54576;DHT22;40472;53.486;14.542;2023-06-10T02:25:12;13.20;99.90
54576;DHT22;40472;53.486;14.542;2023-06-10T02:27:38;13.20;99.90
54576;DHT22;40472;53.486;14.542;2023-06-10T02:30:04;13.20;99.90
54576;DHT22;40472;53.486;14.542;2023-06-10T02:32:30;13.20;99.90
54576;DHT22;40472;53.486;14.542;2023-06-10T02:34:56;13.30;99.90
54576;DHT22;40472;53.486;14.542;2023-06-10T02:37:21;13.30;99.90
54576;DHT22;40472;53.486;14.542;2023-06-10T02:39:47;13.30;99.90
54576;DHT22;40472;53.486;14.542;2023-06-10T02:42:13;13.30;99.90
54576;DHT22;40472;53.486;14.542;2023-06-10T02:44:38;13.30;99.90
54576;DHT22;40472;53.486;14.542;2023-06-10T02:47:05;13.30;99.90
54576;DHT22;40472;53.486;14.542;2023-06-10T02:49:31;13.30;99.90
54576;DHT22;40472;53.486;14.542;2023-06-10T02:51:56;13.30;99.90
54576;DHT22;40472;53.486;14.542;2023-06-10T02:54:25;13.30;99.90
54576;DHT22;40472;53.486;14.542;2023-06-10T02:56:52;13.30;99.90
54576;DHT22;40472;53.486;14.542;2023-06-10T02:59:19;13.30;99.90
54576;DHT22;40472;53.486;14.542;2023-06-10T03:01:46;13.30;99.90
54576;DHT22;40472;53.486;14.542;2023-06-10T03:04:11;13.40;99.90
54576;DHT22;40472;53.486;14.542;2023-06-10T03:06:39;13.40;99.90
54576;DHT22;40472;53.486;14.542;2023-06-10T03:09:06;13.40;99.90
54576;DHT22;40472;53.486;14.542;2023-06-10T03:11:35;13.40;99.90
54576;DHT22;40472;53.486;14.542;2023-06-10T03:14:01;13.40;99.90
54576;DHT22;40472;53.486;14.542;2023-06-10T03:16:26;13.40;99.90
54576;DHT22;40472;53.486;14.542;2023-06-10T03:18:52;13.40;99.90
54576;DHT22;40472;53.486;14.542;2023-06-10T03:21:18;13.40;99.90
54576;DHT22;40472;53.486;14.542;2023-06-10T03:23:45;13.50;99.90
54576;DHT22;40472;53.486;14.542;2023-06-10T03:26:11;13.50;99.90
54576;DHT22;40472;53.486;14.542;2023-06-10T03:28:40;13.50;99.90
54576;DHT22;40472;53.486;14.542;2023-06-10T03:31:05;13.50;99.90
54576;DHT22;40472;53.486;14.542;2023-06-10T03:33:31;13.60;99.90
54576;DHT22;40472;53.486;14.542;2023-06-10T03:35:58;13.60;99.90
54576;DHT22;40472;53.486;14.542;2023-06-10T03:38:23;13.50;99.90
54576;DHT22;40472;53.486;14.542;2023-06-10T03:40:49;13.60;99.90
54576;DHT22;40472;53.486;14.542;2023-06-10T03:43:15;13.60;99.90
54576;DHT22;40472;53.486;14.542;2023-06-10T03:45:40;13.60;99.90
54576;DHT22;40472;53.486;14.542;2023-06-10T03:48:07;13.70;99.90
54576;DHT22;40472;53.486;14.542;2023-06-10T03:50:34;13.70;99.90
54576;DHT22;40472;53.486;14.542;2023-06-10T03:53:00;13.70;99.90
54576;DHT22;40472;53.486;14.542;2023-06-10T03:55:26;13.80;99.90
54576;DHT22;40472;53.486;14.542;2023-06-10T03:57:51;13.70;99.90
54576;DHT22;40472;53.486;14.542;2023-06-10T04:00:17;13.80;99.90
54576;DHT22;40472;53.486;14.542;2023-06-10T04:02:46;13.70;99.90
54576;DHT22;40472;53.486;14.542;2023-06-10T04:05:13;13.70;99.90
54576;DHT22;40472;53.486;14.542;2023-06-10T04:07:39;13.70;99.90
54576;DHT22;40472;53.486;14.542;2023-06-10T04:10:10;13.60;99.90
54576;DHT22;40472;53.486;14.542;2023-06-10T04:12:36;13.60;99.90
54576;DHT22;40472;53.486;14.542;2023-06-10T04:15:03;13.60;99.90
54576;DHT22;40472;53.486;14.542;2023-06-10T04:17:28;13.50;99.90
54576;DHT22;40472;53.486;14.542;2023-06-10T04:19:54;13.60;99.90
54576;DHT22;40472;53.486;14.542;2023-06-10T04:22:26;13.50;99.90
54576;DHT22;40472;53.486;14.542;2023-06-10T04:24:52;13.50;99.90
54576;DHT22;40472;53.486;14.542;2023-06-10T04:27:18;13.50;99.90
54576;DHT22;40472;53.486;14.542;2023-06-10T04:29:44;13.60;99.90
54576;DHT22;40472;53.486;14.542;2023-06-10T04:32:10;13.60;99.90
54576;DHT22;40472;53.486;14.542;2023-06-10T04:34:36;13.60;99.90
54576;DHT22;40472;53.486;14.542;2023-06-10T04:37:04;13.70;99.90
54576;DHT22;40472;53.486;14.542;2023-06-10T04:39:30;13.70;99.90
54576;DHT22;40472;53.486;14.542;2023-06-10T04:41:56;13.70;99.90
54576;DHT22;40472;53.486;14.542;2023-06-10T04:44:21;13.70;99.90
54576;DHT22;40472;53.486;14.542;2023-06-10T04:46:47;13.80;99.90
54576;DHT22;40472;53.486;14.542;2023-06-10T04:49:13;13.80;99.90
54576;DHT22;40472;53.486;14.542;2023-06-10T04:51:41;13.90;99.90
54576;DHT22;40472;53.486;14.542;2023-06-10T04:54:07;13.90;99.90
54576;DHT22;40472;53.486;14.542;2023-06-10T04:56:33;13.90;99.90
54576;DHT22;40472;53.486;14.542;2023-06-10T04:58:59;14.00;99.90
54576;DHT22;40472;53.486;14.542;2023-06-10T05:01:25;13.90;99.90
54576;DHT22;40472;53.486;14.542;2023-06-10T05:03:51;14.00;99.90
54576;DHT22;40472;53.486;14.542;2023-06-10T05:06:17;14.20;99.90
54576;DHT22;40472;53.486;14.542;2023-06-10T05:08:43;14.20;99.90
54576;DHT22;40472;53.486;14.542;2023-06-10T05:11:09;14.20;99.90
54576;DHT22;40472;53.486;14.542;2023-06-10T05:13:35;14.40;99.90
54576;DHT22;40472;53.486;14.542;2023-06-10T05:16:01;14.50;99.90
54576;DHT22;40472;53.486;14.542;2023-06-10T05:18:27;14.70;99.90
54576;DHT22;40472;53.486;14.542;2023-06-10T05:20:53;14.80;99.90
54576;DHT22;40472;53.486;14.542;2023-06-10T05:23:20;14.80;99.90
54576;DHT22;40472;53.486;14.542;2023-06-10T05:25:46;15.00;99.90
54576;DHT22;40472;53.486;14.542;2023-06-10T05:28:11;15.10;99.90
54576;DHT22;40472;53.486;14.542;2023-06-10T05:30:37;15.30;99.90
54576;DHT22;40472;53.486;14.542;2023-06-10T05:33:04;15.50;99.90
54576;DHT22;40472;53.486;14.542;2023-06-10T05:35:30;15.70;99.90
54576;DHT22;40472;53.486;14.542;2023-06-10T05:37:56;15.90;99.90
54576;DHT22;40472;53.486;14.542;2023-06-10T05:40:22;16.00;99.90
54576;DHT22;40472;53.486;14.542;2023-06-10T05:42:47;16.10;99.90
54576;DHT22;40472;53.486;14.542;2023-06-10T05:45:13;16.10;99.90
54576;DHT22;40472;53.486;14.542;2023-06-10T05:47:39;16.40;99.90
54576;DHT22;40472;53.486;14.542;2023-06-10T05:50:06;16.60;99.90
54576;DHT22;40472;53.486;14.542;2023-06-10T05:52:36;16.70;99.90
54576;DHT22;40472;53.486;14.542;2023-06-10T05:55:03;16.90;99.90
54576;DHT22;40472;53.486;14.542;2023-06-10T05:57:29;17.00;99.90
54576;DHT22;40472;53.486;14.542;2023-06-10T05:59:55;17.10;99.90
54576;DHT22;40472;53.486;14.542;2023-06-10T06:02:20;17.30;99.90
54576;DHT22;40472;53.486;14.542;2023-06-10T06:04:46;17.10;99.90
54576;DHT22;40472;53.486;14.542;2023-06-10T06:07:12;17.20;99.90
54576;DHT22;40472;53.486;14.542;2023-06-10T06:09:37;17.30;99.90
54576;DHT22;40472;53.486;14.542;2023-06-10T06:12:03;17.20;99.90
54576;DHT22;40472;53.486;14.542;2023-06-10T06:14:31;17.10;99.90
54576;DHT22;40472;53.486;14.542;2023-06-10T06:16:57;17.30;99.90
54576;DHT22;40472;53.486;14.542;2023-06-10T06:19:23;17.30;99.90
54576;DHT22;40472;53.486;14.542;2023-06-10T06:21:49;17.30;99.90
54576;DHT22;40472;53.486;14.542;2023-06-10T06:24:15;17.30;99.90
54576;DHT22;40472;53.486;14.542;2023-06-10T06:26:41;17.40;99.90
54576;DHT22;40472;53.486;14.542;2023-06-10T06:29:07;17.50;99.90
54576;DHT22;40472;53.486;14.542;2023-06-10T06:31:33;17.60;99.90
54576;DHT22;40472;53.486;14.542;2023-06-10T06:33:59;17.70;99.90
54576;DHT22;40472;53.486;14.542;2023-06-10T06:36:25;17.90;99.90
54576;DHT22;40472;53.486;14.542;2023-06-10T06:38:51;18.00;99.90
54576;DHT22;40472;53.486;14.542;2023-06-10T06:41:17;18.20;99.90
54576;DHT22;40472;53.486;14.542;2023-06-10T06:43:43;18.40;99.90
54576;DHT22;40472;53.486;14.542;2023-06-10T06:46:09;18.50;99.90
54576;DHT22;40472;53.486;14.542;2023-06-10T06:48:35;18.70;99.90
54576;DHT22;40472;53.486;14.542;2023-06-10T06:51:00;18.80;99.90
54576;DHT22;40472;53.486;14.542;2023-06-10T06:53:26;18.80;99.90
54576;DHT22;40472;53.486;14.542;2023-06-10T06:55:52;18.90;99.90
54576;DHT22;40472;53.486;14.542;2023-06-10T06:58:17;18.90;99.90
54576;DHT22;40472;53.486;14.542;2023-06-10T07:00:43;18.90;99.90
54576;DHT22;40472;53.486;14.542;2023-06-10T07:03:09;19.00;99.90
54576;DHT22;40472;53.486;14.542;2023-06-10T07:05:35;19.00;99.90
54576;DHT22;40472;53.486;14.542;2023-06-10T07:08:01;19.20;99.90
54576;DHT22;40472;53.486;14.542;2023-06-10T07:10:27;19.30;99.90
54576;DHT22;40472;53.486;14.542;2023-06-10T07:12:53;19.50;99.90
54576;DHT22;40472;53.486;14.542;2023-06-10T07:15:19;19.60;99.90
54576;DHT22;40472;53.486;14.542;2023-06-10T07:17:45;19.70;99.90
54576;DHT22;40472;53.486;14.542;2023-06-10T07:20:11;19.70;99.90
54576;DHT22;40472;53.486;14.542;2023-06-10T07:22:37;19.80;99.90
54576;DHT22;40472;53.486;14.542;2023-06-10T07:25:05;19.90;99.90
54576;DHT22;40472;53.486;14.542;2023-06-10T07:27:31;20.00;99.90
54576;DHT22;40472;53.486;14.542;2023-06-10T07:29:56;20.10;99.90
54576;DHT22;40472;53.486;14.542;2023-06-10T07:32:22;20.20;99.90
54576;DHT22;40472;53.486;14.542;2023-06-10T07:34:49;20.30;99.90
54576;DHT22;40472;53.486;14.542;2023-06-10T07:37:15;20.30;99.90
54576;DHT22;40472;53.486;14.542;2023-06-10T07:39:41;20.40;99.90
54576;DHT22;40472;53.486;14.542;2023-06-10T07:42:08;20.40;99.90
54576;DHT22;40472;53.486;14.542;2023-06-10T07:44:34;20.50;99.90
54576;DHT22;40472;53.486;14.542;2023-06-10T07:47:00;20.60;99.90
54576;DHT22;40472;53.486;14.542;2023-06-10T07:49:26;20.70;99.90
54576;DHT22;40472;53.486;14.542;2023-06-10T07:51:54;20.80;99.90
54576;DHT22;40472;53.486;14.542;2023-06-10T07:54:19;20.80;99.90
54576;DHT22;40472;53.486;14.542;2023-06-10T07:56:45;21.00;99.90
54576;DHT22;40472;53.486;14.542;2023-06-10T07:59:11;21.10;99.90
54576;DHT22;40472;53.486;14.542;2023-06-10T08:01:36;21.10;99.90
54576;DHT22;40472;53.486;14.542;2023-06-10T08:04:04;21.20;99.90
54576;DHT22;40472;53.486;14.542;2023-06-10T08:06:30;21.30;99.90
54576;DHT22;40472;53.486;14.542;2023-06-10T08:08:56;21.30;99.90
54576;DHT22;40472;53.486;14.542;2023-06-10T08:11:22;21.40;99.90
54576;DHT22;40472;53.486;14.542;2023-06-10T08:13:47;21.50;99.90
54576;DHT22;40472;53.486;14.542;2023-06-10T08:16:13;21.60;99.90
54576;DHT22;40472;53.486;14.542;2023-06-10T08:18:39;21.60;99.90
54576;DHT22;40472;53.486;14.542;2023-06-10T08:21:05;21.70;99.90
54576;DHT22;40472;53.486;14.542;2023-06-10T08:23:31;21.60;99.90
54576;DHT22;40472;53.486;14.542;2023-06-10T08:25:56;21.80;99.90
54576;DHT22;40472;53.486;14.542;2023-06-10T08:28:23;21.90;99.90
54576;DHT22;40472;53.486;14.542;2023-06-10T08:30:49;21.90;99.70
54576;DHT22;40472;53.486;14.542;2023-06-10T08:33:15;22.00;99.90
54576;DHT22;40472;53.486;14.542;2023-06-10T08:35:40;22.10;99.90
54576;DHT22;40472;53.486;14.542;2023-06-10T08:38:06;22.10;99.90
54576;DHT22;40472;53.486;14.542;2023-06-10T08:40:33;22.20;99.90
54576;DHT22;40472;53.486;14.542;2023-06-10T08:43:05;22.40;99.90
54576;DHT22;40472;53.486;14.542;2023-06-10T08:45:37;22.40;98.40
54576;DHT22;40472;53.486;14.542;2023-06-10T08:48:04;22.50;99.90
54576;DHT22;40472;53.486;14.542;2023-06-10T08:50:35;22.50;98.80
54576;DHT22;40472;53.486;14.542;2023-06-10T08:53:07;22.70;98.60
54576;DHT22;40472;53.486;14.542;2023-06-10T08:55:38;22.80;98.00
54576;DHT22;40472;53.486;14.542;2023-06-10T08:58:04;22.90;98.00
54576;DHT22;40472;53.486;14.542;2023-06-10T09:00:31;23.00;97.50
54576;DHT22;40472;53.486;14.542;2023-06-10T09:02:58;23.10;96.90
54576;DHT22;40472;53.486;14.542;2023-06-10T09:05:24;23.30;96.50
54576;DHT22;40472;53.486;14.542;2023-06-10T09:07:52;23.20;96.80
54576;DHT22;40472;53.486;14.542;2023-06-10T09:10:19;23.20;96.90
54576;DHT22;40472;53.486;14.542;2023-06-10T09:12:45;23.40;95.80
54576;DHT22;40472;53.486;14.542;2023-06-10T09:15:11;23.40;96.20
54576;DHT22;40472;53.486;14.542;2023-06-10T09:17:42;23.40;94.90
54576;DHT22;40472;53.486;14.542;2023-06-10T09:20:08;23.40;94.80
54576;DHT22;40472;53.486;14.542;2023-06-10T09:22:35;23.40;95.00
54576;DHT22;40472;53.486;14.542;2023-06-10T09:25:06;23.50;95.30
54576;DHT22;40472;53.486;14.542;2023-06-10T09:27:47;23.60;94.80
54576;DHT22;40472;53.486;14.542;2023-06-10T09:30:29;23.70;93.90
54576;DHT22;40472;53.486;14.542;2023-06-10T09:32:56;23.80;93.70
54576;DHT22;40472;53.486;14.542;2023-06-10T09:35:24;23.80;92.90
54576;DHT22;40472;53.486;14.542;2023-06-10T09:37:54;23.90;92.20
54576;DHT22;40472;53.486;14.542;2023-06-10T09:40:21;24.00;92.20
54576;DHT22;40472;53.486;14.542;2023-06-10T09:43:01;24.00;91.60
54576;DHT22;40472;53.486;14.542;2023-06-10T09:45:31;24.20;91.90
54576;DHT22;40472;53.486;14.542;2023-06-10T09:47:59;24.30;93.00
54576;DHT22;40472;53.486;14.542;2023-06-10T09:50:25;24.30;92.00
54576;DHT22;40472;53.486;14.542;2023-06-10T09:52:51;24.40;91.90
54576;DHT22;40472;53.486;14.542;2023-06-10T09:55:17;24.50;91.60
54576;DHT22;40472;53.486;14.542;2023-06-10T09:57:43;24.50;90.50
54576;DHT22;40472;53.486;14.542;2023-06-10T10:00:15;24.60;90.50
54576;DHT22;40472;53.486;14.542;2023-06-10T10:02:51;24.60;88.90
54576;DHT22;40472;53.486;14.542;2023-06-10T10:05:22;24.60;90.40
54576;DHT22;40472;53.486;14.542;2023-06-10T10:07:48;24.60;88.30
54576;DHT22;40472;53.486;14.542;2023-06-10T10:10:15;24.60;89.60
54576;DHT22;40472;53.486;14.542;2023-06-10T10:12:42;24.80;88.00
54576;DHT22;40472;53.486;14.542;2023-06-10T10:15:09;24.90;89.20
54576;DHT22;40472;53.486;14.542;2023-06-10T10:17:42;25.10;87.30
54576;DHT22;40472;53.486;14.542;2023-06-10T10:20:13;25.00;86.30
54576;DHT22;40472;53.486;14.542;2023-06-10T10:22:41;25.10;88.90
54576;DHT22;40472;53.486;14.542;2023-06-10T10:25:11;25.10;87.50
54576;DHT22;40472;53.486;14.542;2023-06-10T10:27:44;25.20;90.00
54576;DHT22;40472;53.486;14.542;2023-06-10T10:30:11;25.40;85.80
54576;DHT22;40472;53.486;14.542;2023-06-10T10:32:45;25.50;86.90
54576;DHT22;40472;53.486;14.542;2023-06-10T10:35:19;25.40;82.60
54576;DHT22;40472;53.486;14.542;2023-06-10T10:37:49;25.40;84.10
54576;DHT22;40472;53.486;14.542;2023-06-10T10:40:15;25.40;84.20
54576;DHT22;40472;53.486;14.542;2023-06-10T10:42:42;25.50;81.80
54576;DHT22;40472;53.486;14.542;2023-06-10T10:45:09;25.40;81.60
54576;DHT22;40472;53.486;14.542;2023-06-10T10:47:36;25.40;86.10
54576;DHT22;40472;53.486;14.542;2023-06-10T10:50:16;25.60;82.20
54576;DHT22;40472;53.486;14.542;2023-06-10T10:52:58;25.60;79.80
54576;DHT22;40472;53.486;14.542;2023-06-10T10:55:28;25.60;81.80
54576;DHT22;40472;53.486;14.542;2023-06-10T10:58:07;25.60;83.20
54576;DHT22;40472;53.486;14.542;2023-06-10T11:00:35;25.80;81.40
54576;DHT22;40472;53.486;14.542;2023-06-10T11:05:39;25.90;81.00
54576;DHT22;40472;53.486;14.542;2023-06-10T11:08:07;25.90;80.20
54576;DHT22;40472;53.486;14.542;2023-06-10T11:10:35;26.00;78.00
54576;DHT22;40472;53.486;14.542;2023-06-10T11:13:19;26.00;83.30
54576;DHT22;40472;53.486;14.542;2023-06-10T11:15:49;26.20;79.10
54576;DHT22;40472;53.486;14.542;2023-06-10T11:20:51;26.20;74.80
54576;DHT22;40472;53.486;14.542;2023-06-10T11:29:02;27.00;74.90
54576;DHT22;40472;53.486;14.542;2023-06-10T11:31:32;27.00;73.30
54576;DHT22;40472;53.486;14.542;2023-06-10T11:34:05;26.90;71.50
54576;DHT22;40472;53.486;14.542;2023-06-10T11:36:40;26.90;69.70
54576;DHT22;40472;53.486;14.542;2023-06-10T11:39:08;26.80;70.00
54576;DHT22;40472;53.486;14.542;2023-06-10T11:41:35;27.00;68.60
54576;DHT22;40472;53.486;14.542;2023-06-10T11:44:11;27.00;69.80
54576;DHT22;40472;53.486;14.542;2023-06-10T11:46:38;27.20;66.70
54576;DHT22;40472;53.486;14.542;2023-06-10T11:49:05;27.40;68.30
54576;DHT22;40472;53.486;14.542;2023-06-10T11:51:38;27.40;67.50
54576;DHT22;40472;53.486;14.542;2023-06-10T11:54:06;27.60;68.20
54576;DHT22;40472;53.486;14.542;2023-06-10T11:56:32;27.90;69.00
54576;DHT22;40472;53.486;14.542;2023-06-10T11:59:06;28.00;70.20
54576;DHT22;40472;53.486;14.542;2023-06-10T12:01:34;28.20;66.90
54576;DHT22;40472;53.486;14.542;2023-06-10T12:04:05;28.20;69.00
54576;DHT22;40472;53.486;14.542;2023-06-10T12:06:48;27.70;66.40
54576;DHT22;40472;53.486;14.542;2023-06-10T12:11:45;26.50;66.60
54576;DHT22;40472;53.486;14.542;2023-06-10T12:14:13;26.40;66.60
54576;DHT22;40472;53.486;14.542;2023-06-10T12:16:39;26.20;68.30
54576;DHT22;40472;53.486;14.542;2023-06-10T12:19:05;26.20;70.20
54576;DHT22;40472;53.486;14.542;2023-06-10T12:21:33;26.20;69.50
54576;DHT22;40472;53.486;14.542;2023-06-10T12:26:38;26.50;70.90
54576;DHT22;40472;53.486;14.542;2023-06-10T12:29:22;26.70;71.50
54576;DHT22;40472;53.486;14.542;2023-06-10T12:31:56;27.20;67.40
54576;DHT22;40472;53.486;14.542;2023-06-10T12:34:34;27.30;69.30
54576;DHT22;40472;53.486;14.542;2023-06-10T12:37:01;27.60;68.60
54576;DHT22;40472;53.486;14.542;2023-06-10T12:39:27;27.70;68.70
54576;DHT22;40472;53.486;14.542;2023-06-10T12:41:53;27.60;67.40
54576;DHT22;40472;53.486;14.542;2023-06-10T12:44:27;27.50;66.40
54576;DHT22;40472;53.486;14.542;2023-06-10T12:46:56;27.70;64.60
54576;DHT22;40472;53.486;14.542;2023-06-10T12:49:25;27.50;66.40
54576;DHT22;40472;53.486;14.542;2023-06-10T12:51:52;27.40;64.80
54576;DHT22;40472;53.486;14.542;2023-06-10T12:54:17;27.40;65.00
54576;DHT22;40472;53.486;14.542;2023-06-10T12:56:43;27.50;65.10
54576;DHT22;40472;53.486;14.542;2023-06-10T12:59:09;27.60;64.10
54576;DHT22;40472;53.486;14.542;2023-06-10T13:01:35;27.80;63.40
54576;DHT22;40472;53.486;14.542;2023-06-10T13:04:01;27.80;62.60
54576;DHT22;40472;53.486;14.542;2023-06-10T13:06:27;27.90;65.30
54576;DHT22;40472;53.486;14.542;2023-06-10T13:08:54;28.10;64.60
54576;DHT22;40472;53.486;14.542;2023-06-10T13:11:19;28.00;63.80
54576;DHT22;40472;53.486;14.542;2023-06-10T13:13:46;28.00;63.40
54576;DHT22;40472;53.486;14.542;2023-06-10T13:16:12;28.30;63.10
54576;DHT22;40472;53.486;14.542;2023-06-10T13:18:38;28.00;62.70
54576;DHT22;40472;53.486;14.542;2023-06-10T13:21:04;28.10;61.40
54576;DHT22;40472;53.486;14.542;2023-06-10T13:23:29;28.10;61.80
54576;DHT22;40472;53.486;14.542;2023-06-10T13:25:57;27.80;62.50
54576;DHT22;40472;53.486;14.542;2023-06-10T13:28:23;28.20;60.70
54576;DHT22;40472;53.486;14.542;2023-06-10T13:30:48;28.30;62.60
54576;DHT22;40472;53.486;14.542;2023-06-10T13:33:14;28.50;61.90
54576;DHT22;40472;53.486;14.542;2023-06-10T13:35:40;28.50;61.10
54576;DHT22;40472;53.486;14.542;2023-06-10T13:38:06;28.60;63.20
54576;DHT22;40472;53.486;14.542;2023-06-10T13:40:33;28.50;62.50
54576;DHT22;40472;53.486;14.542;2023-06-10T13:42:58;28.00;61.70
54576;DHT22;40472;53.486;14.542;2023-06-10T13:45:24;28.20;61.60
54576;DHT22;40472;53.486;14.542;2023-06-10T13:47:50;28.20;61.50
54576;DHT22;40472;53.486;14.542;2023-06-10T13:50:16;28.10;62.60
54576;DHT22;40472;53.486;14.542;2023-06-10T13:52:42;28.10;63.20
54576;DHT22;40472;53.486;14.542;2023-06-10T13:55:08;28.10;62.40
54576;DHT22;40472;53.486;14.542;2023-06-10T13:57:34;27.80;62.90
54576;DHT22;40472;53.486;14.542;2023-06-10T14:00:00;27.90;61.50
54576;DHT22;40472;53.486;14.542;2023-06-10T14:02:26;27.60;60.60
54576;DHT22;40472;53.486;14.542;2023-06-10T14:04:52;27.70;59.80
54576;DHT22;40472;53.486;14.542;2023-06-10T14:07:17;27.60;61.50
54576;DHT22;40472;53.486;14.542;2023-06-10T14:09:44;27.60;63.00
54576;DHT22;40472;53.486;14.542;2023-06-10T14:12:10;27.30;60.00
54576;DHT22;40472;53.486;14.542;2023-06-10T14:14:36;27.20;60.80
54576;DHT22;40472;53.486;14.542;2023-06-10T14:17:02;26.90;59.90
54576;DHT22;40472;53.486;14.542;2023-06-10T14:19:30;27.30;63.40
54576;DHT22;40472;53.486;14.542;2023-06-10T14:21:56;27.70;62.80
54576;DHT22;40472;53.486;14.542;2023-06-10T14:24:21;28.00;60.60
54576;DHT22;40472;53.486;14.542;2023-06-10T14:26:47;28.20;60.40
54576;DHT22;40472;53.486;14.542;2023-06-10T14:29:13;28.30;58.50
54576;DHT22;40472;53.486;14.542;2023-06-10T14:31:40;28.20;59.80
54576;DHT22;40472;53.486;14.542;2023-06-10T14:34:06;27.80;61.10
54576;DHT22;40472;53.486;14.542;2023-06-10T14:36:34;27.30;63.30
54576;DHT22;40472;53.486;14.542;2023-06-10T14:39:00;27.00;63.90
54576;DHT22;40472;53.486;14.542;2023-06-10T14:41:26;26.80;65.00
54576;DHT22;40472;53.486;14.542;2023-06-10T14:43:52;26.40;65.20
54576;DHT22;40472;53.486;14.542;2023-06-10T14:46:18;26.20;66.10
54576;DHT22;40472;53.486;14.542;2023-06-10T14:48:46;26.30;66.40
54576;DHT22;40472;53.486;14.542;2023-06-10T14:51:12;26.50;65.90
54576;DHT22;40472;53.486;14.542;2023-06-10T14:53:39;26.70;65.30
54576;DHT22;40472;53.486;14.542;2023-06-10T14:56:05;26.90;65.50
54576;DHT22;40472;53.486;14.542;2023-06-10T14:58:31;27.10;64.90
54576;DHT22;40472;53.486;14.542;2023-06-10T15:00:58;27.20;64.30
54576;DHT22;40472;53.486;14.542;2023-06-10T15:03:24;27.10;63.80
54576;DHT22;40472;53.486;14.542;2023-06-10T15:05:49;27.00;64.10
54576;DHT22;40472;53.486;14.542;2023-06-10T15:08:15;26.80;64.80
54576;DHT22;40472;53.486;14.542;2023-06-10T15:10:41;26.70;64.80
54576;DHT22;40472;53.486;14.542;2023-06-10T15:13:07;26.70;64.70
54576;DHT22;40472;53.486;14.542;2023-06-10T15:15:33;26.70;65.70
54576;DHT22;40472;53.486;14.542;2023-06-10T15:17:58;26.70;65.40
54576;DHT22;40472;53.486;14.542;2023-06-10T15:20:24;26.60;65.60
54576;DHT22;40472;53.486;14.542;2023-06-10T15:22:50;26.70;65.80
54576;DHT22;40472;53.486;14.542;2023-06-10T15:25:16;27.10;66.80
54576;DHT22;40472;53.486;14.542;2023-06-10T15:27:42;26.80;63.60
54576;DHT22;40472;53.486;14.542;2023-06-10T15:30:08;26.50;67.40
54576;DHT22;40472;53.486;14.542;2023-06-10T15:32:35;26.60;64.50
54576;DHT22;40472;53.486;14.542;2023-06-10T15:35:00;26.60;64.50